Time;durP1;ratioP1;P1;durP2;ratioP2;P2;SDS_P1;SDS_P2;PMS_P1;PMS_P2;Temp;Humidity;BMP_temperature;BMP_pressure;BME280_temperature;BME280_humidity;BME280_pressure;Samples;Min_cycle;Max_cycle;Signal;HPM_P1;HPM_P2
2024/04/05 00:00:39;;;;;;;0.57;0.57;;;;;;;;;;5068479;28;20203;-58
2024/04/05 00:03:05;;;;;;;1.17;1.08;;;;;;;;;;5049277;28;20201;-56
2024/04/05 00:05:31;;;;;;;1.63;0.75;;;;;;;;;;5068133;28;20230;-55
2024/04/05 00:07:59;;;;;;;1.80;0.98;;;;;;;;;;5068211;28;20202;-55
2024/04/05 00:10:24;;;;;;;2.72;1.20;;;;;;;;;;5068077;28;20199;-56
2024/04/05 00:12:51;;;;;;;2.45;1.15;;;;;;;;;;5067939;28;20635;-57
2024/04/05 00:15:16;;;;;;;0.85;0.70;;;;;;;;;;5067869;28;20199;-58
2024/04/05 00:17:45;;;;;;;0.75;0.75;;;;;;;;;;5068019;28;20206;-57
2024/04/05 00:20:10;;;;;;;1.45;1.08;;;;;;;;;;5067708;28;20203;-56
2024/04/05 00:22:37;;;;;;;1.98;0.80;;;;;;;;;;5067771;28;20271;-56
2024/04/05 00:25:04;;;;;;;1.75;0.95;;;;;;;;;;5067590;28;20230;-58
2024/04/05 00:27:31;;;;;;;1.58;0.70;;;;;;;;;;5067836;28;20633;-55
2024/04/05 00:29:56;;;;;;;0.70;0.50;;;;;;;;;;5067482;28;20199;-57
2024/04/05 00:32:23;;;;;;;2.30;0.80;;;;;;;;;;5067822;28;20210;-58
2024/04/05 00:34:48;;;;;;;0.85;0.80;;;;;;;;;;5067543;28;20205;-58
2024/04/05 00:37:15;;;;;;;1.40;0.77;;;;;;;;;;5067395;28;20198;-57
2024/04/05 00:39:40;;;;;;;1.50;0.98;;;;;;;;;;5067280;28;20203;-58
2024/04/05 00:42:08;;;;;;;0.70;0.70;;;;;;;;;;5067180;28;20241;-57
2024/04/05 00:44:34;;;;;;;1.20;0.68;;;;;;;;;;5067276;28;20273;-57
2024/04/05 00:47:00;;;;;;;1.13;0.90;;;;;;;;;;5067285;28;20198;-57
2024/04/05 00:49:27;;;;;;;1.05;0.68;;;;;;;;;;5067594;28;21074;-57
2024/04/05 00:51:54;;;;;;;1.02;0.80;;;;;;;;;;5067208;28;20207;-57
2024/04/05 00:54:20;;;;;;;0.70;0.50;;;;;;;;;;5067112;28;20620;-58
2024/04/05 00:56:48;;;;;;;1.52;0.90;;;;;;;;;;5067218;28;20222;-57
2024/04/05 00:59:15;;;;;;;0.47;0.43;;;;;;;;;;5066940;28;20213;-58
2024/04/05 01:01:42;;;;;;;0.73;0.50;;;;;;;;;;5067532;28;20256;-57
2024/04/05 01:04:10;;;;;;;0.70;0.47;;;;;;;;;;5066664;28;20676;-57
2024/04/05 01:06:37;;;;;;;0.57;0.52;;;;;;;;;;5066813;28;20287;-57
2024/04/05 01:09:04;;;;;;;0.95;0.75;;;;;;;;;;5066814;28;20210;-57
2024/04/05 01:11:30;;;;;;;0.93;0.85;;;;;;;;;;5066434;28;20208;-58
2024/04/05 01:13:56;;;;;;;1.05;0.70;;;;;;;;;;5066625;28;20238;-58
2024/04/05 01:16:24;;;;;;;0.52;0.50;;;;;;;;;;5067044;28;20199;-57
2024/04/05 01:18:50;;;;;;;0.90;0.60;;;;;;;;;;5066530;28;20195;-58
2024/04/05 01:21:17;;;;;;;0.82;0.70;;;;;;;;;;5067043;28;20199;-57
2024/04/05 01:23:43;;;;;;;1.00;0.80;;;;;;;;;;5066567;28;20209;-57
2024/04/05 01:26:10;;;;;;;0.77;0.50;;;;;;;;;;5066538;28;20711;-58
2024/04/05 01:28:35;;;;;;;0.57;0.57;;;;;;;;;;5031195;28;20203;-56
2024/04/05 01:31:02;;;;;;;0.70;0.55;;;;;;;;;;5066847;28;20206;-58
2024/04/05 01:33:27;;;;;;;0.57;0.55;;;;;;;;;;5031307;28;20191;-58
2024/04/05 01:35:54;;;;;;;0.80;0.70;;;;;;;;;;5066404;28;20208;-58
2024/04/05 01:38:20;;;;;;;0.50;0.50;;;;;;;;;;5066433;28;20203;-56
2024/04/05 01:40:47;;;;;;;0.80;0.80;;;;;;;;;;5066457;28;20206;-58
2024/04/05 01:43:13;;;;;;;1.05;0.70;;;;;;;;;;5066724;28;20230;-58
2024/04/05 01:45:39;;;;;;;2.42;0.55;;;;;;;;;;5030810;28;20729;-58
2024/04/05 01:48:05;;;;;;;1.20;1.10;;;;;;;;;;5066686;28;20206;-58
2024/04/05 01:50:32;;;;;;;1.83;1.50;;;;;;;;;;5066429;28;20203;-58
2024/04/05 01:52:57;;;;;;;2.95;1.60;;;;;;;;;;5030949;28;20312;-57
2024/04/05 01:55:24;;;;;;;3.03;2.10;;;;;;;;;;5066479;28;20683;-57
2024/04/05 01:57:51;;;;;;;2.58;1.90;;;;;;;;;;5066552;28;20206;-57
2024/04/05 02:00:18;;;;;;;2.63;1.83;;;;;;;;;;5047356;28;20199;-58
2024/04/05 02:02:44;;;;;;;1.40;1.30;;;;;;;;;;5066495;28;20217;-57
2024/04/05 02:05:10;;;;;;;2.08;1.88;;;;;;;;;;5066143;28;20230;-58
2024/04/05 02:07:36;;;;;;;1.77;1.67;;;;;;;;;;5066349;28;20221;-58
2024/04/05 02:10:03;;;;;;;1.92;1.65;;;;;;;;;;5030536;28;20207;-58
2024/04/05 02:12:28;;;;;;;1.70;1.30;;;;;;;;;;5066272;28;20202;-57
2024/04/05 02:14:56;;;;;;;1.73;1.20;;;;;;;;;;5066542;28;20203;-58
2024/04/05 02:17:22;;;;;;;1.98;1.65;;;;;;;;;;5066700;28;20215;-58
2024/04/05 02:19:50;;;;;;;2.28;1.27;;;;;;;;;;5047389;28;20210;-56
2024/04/05 02:22:16;;;;;;;1.98;1.73;;;;;;;;;;5066391;28;20260;-57
2024/04/05 02:24:42;;;;;;;2.42;1.38;;;;;;;;;;5067577;28;20700;-57
2024/04/05 02:27:08;;;;;;;2.92;2.08;;;;;;;;;;5070088;28;20223;-57
2024/04/05 02:29:34;;;;;;;2.42;2.20;;;;;;;;;;5070057;28;20206;-57
2024/04/05 02:32:01;;;;;;;3.30;3.00;;;;;;;;;;5069956;28;20199;-57
2024/04/05 02:34:27;;;;;;;3.35;2.05;;;;;;;;;;5069733;28;20217;-57
2024/04/05 02:36:53;;;;;;;2.35;1.55;;;;;;;;;;5069893;28;20213;-57
2024/04/05 02:39:20;;;;;;;1.23;1.13;;;;;;;;;;5069723;28;20207;-57
2024/04/05 02:41:46;;;;;;;1.27;1.02;;;;;;;;;;5050692;28;20257;-56
2024/04/05 02:44:12;;;;;;;1.52;1.00;;;;;;;;;;5069735;28;20844;-57
2024/04/05 02:46:38;;;;;;;1.05;0.95;;;;;;;;;;5069754;28;20694;-58
2024/04/05 02:49:06;;;;;;;1.30;1.20;;;;;;;;;;5034126;28;20294;-57
2024/04/05 02:51:32;;;;;;;1.52;1.08;;;;;;;;;;5069464;28;20195;-58
2024/04/05 02:53:59;;;;;;;1.48;1.20;;;;;;;;;;5069514;28;20225;-58
2024/04/05 02:56:24;;;;;;;1.70;1.30;;;;;;;;;;5050650;28;20195;-58
2024/04/05 02:58:51;;;;;;;2.40;1.67;;;;;;;;;;5069724;28;20202;-58
2024/04/05 03:01:16;;;;;;;1.58;1.27;;;;;;;;;;5069699;28;20199;-58
2024/04/05 03:03:43;;;;;;;3.20;1.75;;;;;;;;;;5069517;28;20203;-58
2024/04/05 03:06:10;;;;;;;1.98;1.60;;;;;;;;;;5050248;28;20219;-58
2024/04/05 03:08:36;;;;;;;1.67;1.20;;;;;;;;;;5069220;28;20280;-57
2024/04/05 03:11:02;;;;;;;1.27;1.00;;;;;;;;;;5068958;28;20268;-58
2024/04/05 03:13:29;;;;;;;1.88;1.55;;;;;;;;;;5069382;28;20214;-58
2024/04/05 03:15:54;;;;;;;1.85;1.27;;;;;;;;;;5069376;28;20199;-57
2024/04/05 03:18:21;;;;;;;1.50;1.40;;;;;;;;;;5069080;28;20276;-58
2024/04/05 03:20:46;;;;;;;3.15;1.75;;;;;;;;;;5069266;28;20203;-57
2024/04/05 03:23:14;;;;;;;1.38;1.27;;;;;;;;;;5069270;28;20206;-58
2024/04/05 03:25:40;;;;;;;2.72;1.48;;;;;;;;;;5033633;28;20230;-58
2024/04/05 03:28:06;;;;;;;1.48;1.13;;;;;;;;;;5069016;28;20203;-58
2024/04/05 03:30:32;;;;;;;2.22;1.30;;;;;;;;;;5068563;28;20199;-57
2024/04/05 03:32:59;;;;;;;1.60;1.17;;;;;;;;;;5068839;28;20209;-57
2024/04/05 03:35:24;;;;;;;1.60;1.10;;;;;;;;;;5068722;28;20602;-58
2024/04/05 03:37:52;;;;;;;1.05;0.95;;;;;;;;;;5068772;28;20199;-57
2024/04/05 03:40:20;;;;;;;0.82;0.80;;;;;;;;;;5068676;28;20199;-56
2024/04/05 03:42:46;;;;;;;1.35;1.08;;;;;;;;;;5068713;28;20235;-57
2024/04/05 03:45:12;;;;;;;1.05;0.93;;;;;;;;;;5069270;28;20248;-57
2024/04/05 03:47:38;;;;;;;1.10;0.90;;;;;;;;;;5069099;28;20202;-59
2024/04/05 03:50:05;;;;;;;1.23;1.13;;;;;;;;;;5033141;28;20663;-57
2024/04/05 03:52:31;;;;;;;1.88;1.20;;;;;;;;;;5068448;28;20288;-58
2024/04/05 03:54:57;;;;;;;1.65;1.00;;;;;;;;;;5067897;28;20625;-56
2024/04/05 03:57:24;;;;;;;1.55;1.00;;;;;;;;;;5068354;28;20199;-55
2024/04/05 03:59:51;;;;;;;1.23;1.13;;;;;;;;;;5067916;28;20205;-56
2024/04/05 04:02:16;;;;;;;3.58;0.98;;;;;;;;;;5068127;28;20195;-56
2024/04/05 04:04:43;;;;;;;1.98;1.48;;;;;;;;;;5068218;28;20203;-59
2024/04/05 04:07:09;;;;;;;1.50;1.40;;;;;;;;;;5068149;28;20202;-58
2024/04/05 04:09:37;;;;;;;4.53;2.00;;;;;;;;;;5067901;28;20293;-58
2024/04/05 04:12:03;;;;;;;1.55;1.10;;;;;;;;;;5032860;28;20694;-59
2024/04/05 04:14:32;;;;;;;1.20;1.10;;;;;;;;;;5067992;28;20210;-59
2024/04/05 04:16:57;;;;;;;1.42;1.33;;;;;;;;;;5067912;28;20312;-54
2024/04/05 04:19:24;;;;;;;1.27;1.10;;;;;;;;;;5068054;28;20669;-55
2024/04/05 04:21:51;;;;;;;1.75;1.35;;;;;;;;;;5031898;28;20295;-56
2024/04/05 04:24:19;;;;;;;1.55;1.23;;;;;;;;;;5048561;28;20608;-58
2024/04/05 04:26:45;;;;;;;1.38;1.10;;;;;;;;;;5067512;28;20258;-55
2024/04/05 04:29:12;;;;;;;1.20;1.10;;;;;;;;;;5067655;28;20211;-54
2024/04/05 04:31:39;;;;;;;1.25;1.15;;;;;;;;;;5067852;28;20203;-56
2024/04/05 04:34:06;;;;;;;1.55;1.45;;;;;;;;;;5032070;28;20688;-57
2024/04/05 04:36:32;;;;;;;2.40;1.30;;;;;;;;;;5032256;28;20230;-57
2024/04/05 04:38:58;;;;;;;1.75;1.60;;;;;;;;;;5066998;28;20654;-56
2024/04/05 04:41:24;;;;;;;3.03;1.75;;;;;;;;;;5067193;28;20292;-58
2024/04/05 04:43:52;;;;;;;1.40;1.30;;;;;;;;;;5067603;28;20203;-57
2024/04/05 04:46:19;;;;;;;6.95;3.60;;;;;;;;;;5067324;28;20226;-58
2024/04/05 04:48:47;;;;;;;11.75;5.43;;;;;;;;;;5066646;28;20202;-57
2024/04/05 04:51:13;;;;;;;9.60;4.75;;;;;;;;;;5067138;28;20214;-57
2024/04/05 04:53:39;;;;;;;6.38;4.32;;;;;;;;;;5067250;28;20206;-57
2024/04/05 04:56:05;;;;;;;8.25;5.28;;;;;;;;;;5066844;28;20226;-58
2024/04/05 04:58:33;;;;;;;4.00;3.30;;;;;;;;;;5067044;28;20628;-58
2024/04/05 05:00:59;;;;;;;3.22;2.20;;;;;;;;;;5067303;28;20277;-57
2024/04/05 05:03:26;;;;;;;2.50;2.05;;;;;;;;;;5031348;28;20749;-56
2024/04/05 05:05:53;;;;;;;3.05;1.60;;;;;;;;;;5067057;28;20191;-57
2024/04/05 05:08:20;;;;;;;4.40;2.00;;;;;;;;;;5048191;28;20202;-56
2024/04/05 05:10:46;;;;;;;2.00;1.50;;;;;;;;;;5066750;28;20229;-56
2024/04/05 05:13:12;;;;;;;6.35;1.67;;;;;;;;;;5067133;28;20207;-56
2024/04/05 05:15:40;;;;;;;2.03;1.80;;;;;;;;;;5066704;28;20226;-57
2024/04/05 05:18:06;;;;;;;5.07;2.22;;;;;;;;;;5066811;28;20213;-56
2024/04/05 05:20:32;;;;;;;4.68;2.15;;;;;;;;;;5030754;28;20198;-55
2024/04/05 05:23:00;;;;;;;2.42;1.63;;;;;;;;;;5066551;28;20205;-54
2024/04/05 05:25:26;;;;;;;1.85;1.52;;;;;;;;;;5066663;28;20806;-55
2024/04/05 05:27:52;;;;;;;3.25;1.65;;;;;;;;;;5066604;28;20199;-55
2024/04/05 05:30:18;;;;;;;2.03;1.40;;;;;;;;;;5066432;28;20579;-54
2024/04/05 05:32:45;;;;;;;1.88;1.48;;;;;;;;;;5066569;28;20653;-56
2024/04/05 05:35:11;;;;;;;1.30;1.02;;;;;;;;;;5066517;28;21089;-56
2024/04/05 05:37:37;;;;;;;3.05;2.35;;;;;;;;;;5066263;28;20207;-56
2024/04/05 05:40:05;;;;;;;2.65;2.08;;;;;;;;;;5066299;28;20210;-57
2024/04/05 05:42:32;;;;;;;3.85;1.50;;;;;;;;;;5030586;28;20266;-56
2024/04/05 05:44:58;;;;;;;3.95;1.20;;;;;;;;;;5066578;28;20199;-56
2024/04/05 05:47:24;;;;;;;2.35;2.00;;;;;;;;;;5066365;28;20591;-54
2024/04/05 05:49:51;;;;;;;3.80;1.77;;;;;;;;;;5066481;28;20206;-55
2024/04/05 05:52:18;;;;;;;7.38;1.95;;;;;;;;;;5066328;28;20290;-55
2024/04/05 05:54:44;;;;;;;3.33;1.70;;;;;;;;;;5066186;28;20672;-55
2024/04/05 05:57:12;;;;;;;3.72;2.00;;;;;;;;;;5066186;28;20233;-57
2024/04/05 05:59:38;;;;;;;2.97;1.40;;;;;;;;;;5069052;28;20280;-56
2024/04/05 06:02:04;;;;;;;2.90;1.50;;;;;;;;;;5051416;28;20234;-57
2024/04/05 06:04:30;;;;;;;3.05;2.05;;;;;;;;;;5070115;28;20210;-55
2024/04/05 06:06:57;;;;;;;2.33;1.45;;;;;;;;;;5070043;28;20198;-57
2024/04/05 06:09:23;;;;;;;2.45;1.55;;;;;;;;;;5070009;28;20285;-56
2024/04/05 06:11:50;;;;;;;3.00;1.88;;;;;;;;;;5070258;28;20293;-56
2024/04/05 06:14:17;;;;;;;2.67;1.52;;;;;;;;;;5070205;28;20232;-53
2024/04/05 06:16:44;;;;;;;4.30;2.10;;;;;;;;;;5070002;28;20258;-54
2024/04/05 06:19:10;;;;;;;2.22;1.60;;;;;;;;;;5070328;28;20194;-55
2024/04/05 06:21:37;;;;;;;2.70;1.90;;;;;;;;;;5069847;28;20565;-55
2024/04/05 06:24:02;;;;;;;4.80;2.40;;;;;;;;;;5069927;28;20199;-56
2024/04/05 06:26:29;;;;;;;4.00;2.60;;;;;;;;;;5070204;28;20864;-55
2024/04/05 06:28:55;;;;;;;3.35;1.95;;;;;;;;;;5069947;28;20280;-54
2024/04/05 06:31:23;;;;;;;4.47;2.47;;;;;;;;;;5069734;28;20238;-55
2024/04/05 06:33:48;;;;;;;3.88;2.67;;;;;;;;;;5050491;28;20195;-54
2024/04/05 06:36:16;;;;;;;3.08;2.42;;;;;;;;;;5069561;28;20226;-56
2024/04/05 06:38:41;;;;;;;3.65;2.40;;;;;;;;;;5069434;28;20202;-53
2024/04/05 06:41:08;;;;;;;3.67;2.47;;;;;;;;;;5069358;28;20195;-55
2024/04/05 06:43:34;;;;;;;3.45;2.33;;;;;;;;;;5069587;28;20289;-52
2024/04/05 06:46:03;;;;;;;5.60;2.22;;;;;;;;;;5069600;28;20295;-55
2024/04/05 06:48:31;;;;;;;2.20;2.00;;;;;;;;;;5069208;28;20203;-54
2024/04/05 06:50:57;;;;;;;2.33;1.92;;;;;;;;;;5069174;28;20207;-55
2024/04/05 06:53:24;;;;;;;1.85;1.42;;;;;;;;;;5069020;28;20726;-54
2024/04/05 06:55:51;;;;;;;3.03;1.40;;;;;;;;;;5068468;28;20223;-55
2024/04/05 06:58:17;;;;;;;3.85;2.25;;;;;;;;;;5069139;28;20203;-54
2024/04/05 07:00:43;;;;;;;2.35;1.63;;;;;;;;;;5069019;28;20213;-54
2024/04/05 07:03:09;;;;;;;1.88;1.33;;;;;;;;;;5068992;28;20662;-56
2024/04/05 07:05:37;;;;;;;7.03;1.90;;;;;;;;;;5049837;28;20285;-51
2024/04/05 07:08:03;;;;;;;3.00;1.50;;;;;;;;;;5068727;28;20290;-55
2024/04/05 07:10:29;;;;;;;2.90;2.13;;;;;;;;;;5067956;28;20991;-56
2024/04/05 07:12:56;;;;;;;2.17;1.55;;;;;;;;;;5069132;28;20257;-54
2024/04/05 07:15:23;;;;;;;4.00;1.75;;;;;;;;;;5068865;28;20239;-54
2024/04/05 07:17:49;;;;;;;3.65;1.50;;;;;;;;;;5068825;28;20199;-55
2024/04/05 07:20:16;;;;;;;2.95;1.15;;;;;;;;;;5069096;28;20264;-53
2024/04/05 07:22:43;;;;;;;2.30;1.33;;;;;;;;;;5069044;28;20202;-54
2024/04/05 07:25:09;;;;;;;3.70;1.30;;;;;;;;;;5068240;28;20264;-56
2024/04/05 07:27:35;;;;;;;1.67;1.40;;;;;;;;;;5068723;28;20238;-53
2024/04/05 07:30:02;;;;;;;2.80;1.02;;;;;;;;;;5033019;28;20687;-54
2024/04/05 07:32:27;;;;;;;2.25;1.25;;;;;;;;;;5068601;28;20269;-55
2024/04/05 07:34:54;;;;;;;0.70;0.60;;;;;;;;;;5068678;28;20203;-52
2024/04/05 07:37:20;;;;;;;0.93;0.75;;;;;;;;;;5033257;28;20234;-53
2024/04/05 07:39:50;;;;;;;0.93;0.60;;;;;;;;;;5068490;28;20984;-52
2024/04/05 07:42:16;;;;;;;0.60;0.52;;;;;;;;;;5068099;28;20233;-55
2024/04/05 07:44:43;;;;;;;0.85;0.70;;;;;;;;;;5068664;28;20206;-54
2024/04/05 07:47:08;;;;;;;0.50;0.50;;;;;;;;;;5068203;28;20286;-54
2024/04/05 07:49:35;;;;;;;0.50;0.50;;;;;;;;;;5068206;28;20290;-53
2024/04/05 07:52:00;;;;;;;0.95;0.50;;;;;;;;;;5068043;28;20589;-54
2024/04/05 07:54:27;;;;;;;0.85;0.57;;;;;;;;;;5067811;28;20210;-54
2024/04/05 07:56:54;;;;;;;0.90;0.80;;;;;;;;;;5032230;28;20230;-53
2024/04/05 07:59:21;;;;;;;1.05;0.73;;;;;;;;;;5067802;28;20202;-53
2024/04/05 08:01:46;;;;;;;0.40;0.40;;;;;;;;;;5068008;28;20203;-55
2024/04/05 08:04:13;;;;;;;0.65;0.47;;;;;;;;;;5067701;28;20203;-55
2024/04/05 08:06:39;;;;;;;0.55;0.40;;;;;;;;;;5067991;28;20199;-53
2024/04/05 08:09:05;;;;;;;0.57;0.40;;;;;;;;;;5067804;28;20300;-55
2024/04/05 08:11:31;;;;;;;0.82;0.60;;;;;;;;;;5067869;28;20195;-54
2024/04/05 08:13:59;;;;;;;0.55;0.20;;;;;;;;;;5067610;28;20229;-53
2024/04/05 08:16:26;;;;;;;0.32;0.20;;;;;;;;;;5067868;28;20260;-51
2024/04/05 08:18:53;;;;;;;0.70;0.30;;;;;;;;;;5067661;28;20754;-55
2024/04/05 08:21:18;;;;;;;0.50;0.40;;;;;;;;;;5067222;28;20191;-53
2024/04/05 08:23:45;;;;;;;0.40;0.30;;;;;;;;;;5066553;28;20833;-52
2024/04/05 08:26:11;;;;;;;0.30;0.20;;;;;;;;;;5067424;28;20218;-54
2024/04/05 08:28:38;;;;;;;1.75;0.70;;;;;;;;;;5067191;28;20205;-55
2024/04/05 08:31:05;;;;;;;0.57;0.57;;;;;;;;;;5067357;28;20568;-54
2024/04/05 08:33:32;;;;;;;0.30;0.30;;;;;;;;;;5067305;28;20242;-55
2024/04/05 08:35:58;;;;;;;0.93;0.45;;;;;;;;;;5067214;28;20687;-55
2024/04/05 08:38:25;;;;;;;0.43;0.30;;;;;;;;;;5048153;28;20400;-53
2024/04/05 08:40:50;;;;;;;0.20;0.20;;;;;;;;;;5067261;28;20199;-55
2024/04/05 08:43:17;;;;;;;0.22;0.20;;;;;;;;;;5031140;28;20233;-55
2024/04/05 08:45:44;;;;;;;0.52;0.20;;;;;;;;;;5067179;28;20203;-53
2024/04/05 08:48:13;;;;;;;1.45;0.38;;;;;;;;;;5066970;28;20214;-54
2024/04/05 08:50:38;;;;;;;1.52;0.60;;;;;;;;;;5067020;28;20195;-55
2024/04/05 08:53:07;;;;;;;0.32;0.32;;;;;;;;;;5030908;28;20679;-53
2024/04/05 08:55:34;;;;;;;0.63;0.30;;;;;;;;;;5066728;28;20206;-55
2024/04/05 08:58:01;;;;;;;0.30;0.30;;;;;;;;;;5066739;28;20230;-53
2024/04/05 09:00:27;;;;;;;0.30;0.20;;;;;;;;;;5066739;28;20268;-52
2024/04/05 09:02:54;;;;;;;1.75;0.30;;;;;;;;;;5047460;28;20203;-55
2024/04/05 09:05:22;;;;;;;0.28;0.28;;;;;;;;;;5047791;28;20202;-55
2024/04/05 09:07:49;;;;;;;1.23;0.30;;;;;;;;;;5066792;28;20199;-51
2024/04/05 09:10:16;;;;;;;0.20;0.20;;;;;;;;;;5066776;28;20199;-53
2024/04/05 09:12:47;;;;;;;0.43;0.28;;;;;;;;;;5066881;28;20221;-55
2024/04/05 09:15:17;;;;;;;0.22;0.22;;;;;;;;;;5066844;28;20234;-54
2024/04/05 09:17:46;;;;;;;0.47;0.35;;;;;;;;;;5066537;28;20222;-54
2024/04/05 09:20:16;;;;;;;0.43;0.10;;;;;;;;;;5066632;28;20199;-51
2024/04/05 09:22:44;;;;;;;0.40;0.20;;;;;;;;;;5066693;28;20207;-55
2024/04/05 09:25:10;;;;;;;1.48;0.40;;;;;;;;;;5030549;28;20203;-54
2024/04/05 09:27:36;;;;;;;2.45;0.55;;;;;;;;;;5066612;28;20599;-52
2024/04/05 09:30:02;;;;;;;0.30;0.30;;;;;;;;;;5066135;28;20194;-56
2024/04/05 09:32:29;;;;;;;0.45;0.30;;;;;;;;;;5066267;28;20202;-55
2024/04/05 09:34:55;;;;;;;0.95;0.30;;;;;;;;;;5065990;28;20209;-55
2024/04/05 09:37:25;;;;;;;0.80;0.30;;;;;;;;;;5066193;28;20317;-53
2024/04/05 09:39:52;;;;;;;0.85;0.38;;;;;;;;;;5066361;28;20230;-54
2024/04/05 09:42:21;;;;;;;0.50;0.30;;;;;;;;;;5066268;28;20245;-54
2024/04/05 09:44:50;;;;;;;0.30;0.30;;;;;;;;;;5066334;28;20598;-55
2024/04/05 09:47:18;;;;;;;0.40;0.40;;;;;;;;;;5066125;28;20213;-55
2024/04/05 09:49:44;;;;;;;0.43;0.25;;;;;;;;;;5066033;28;20201;-54
2024/04/05 09:52:14;;;;;;;1.10;0.30;;;;;;;;;;5066462;28;20211;-53
2024/04/05 09:54:40;;;;;;;0.40;0.20;;;;;;;;;;5066870;28;20211;-55
2024/04/05 09:57:11;;;;;;;2.70;0.43;;;;;;;;;;5066661;28;20829;-54
2024/04/05 09:59:38;;;;;;;0.30;0.30;;;;;;;;;;5066094;28;20203;-54
2024/04/05 10:02:06;;;;;;;0.45;0.30;;;;;;;;;;5066026;28;20206;-51
2024/04/05 10:04:31;;;;;;;0.30;0.30;;;;;;;;;;5065717;28;20285;-52
2024/04/05 10:07:05;;;;;;;1.10;0.40;;;;;;;;;;5065960;28;20286;-49
2024/04/05 10:09:33;;;;;;;0.98;0.30;;;;;;;;;;5065796;28;20195;-52
2024/04/05 10:12:10;;;;;;;0.63;0.40;;;;;;;;;;5066071;28;20210;-52
2024/04/05 10:14:37;;;;;;;0.52;0.30;;;;;;;;;;5066051;28;20244;-53
2024/04/05 10:17:06;;;;;;;1.17;0.30;;;;;;;;;;5066317;28;20230;-53
2024/04/05 10:19:31;;;;;;;0.68;0.32;;;;;;;;;;5066283;28;20194;-51
2024/04/05 10:22:03;;;;;;;0.30;0.30;;;;;;;;;;5065771;28;20302;-54
2024/04/05 10:24:29;;;;;;;0.30;0.30;;;;;;;;;;5065727;28;20225;-53
2024/04/05 10:26:56;;;;;;;0.30;0.30;;;;;;;;;;5046439;28;20227;-55
2024/04/05 10:29:22;;;;;;;0.70;0.30;;;;;;;;;;5065725;28;20253;-55
2024/04/05 10:32:00;;;;;;;0.77;0.38;;;;;;;;;;5065684;28;20680;-52
2024/04/05 10:34:25;;;;;;;0.20;0.20;;;;;;;;;;5065940;28;20198;-51
2024/04/05 10:36:53;;;;;;;0.30;0.30;;;;;;;;;;5065976;28;20772;-52
2024/04/05 10:39:19;;;;;;;0.38;0.38;;;;;;;;;;5065870;28;20210;-54
2024/04/05 10:41:46;;;;;;;0.28;0.20;;;;;;;;;;5065723;28;20266;-55
2024/04/05 10:44:13;;;;;;;0.38;0.20;;;;;;;;;;5065599;28;20205;-52
2024/04/05 10:46:40;;;;;;;0.82;0.30;;;;;;;;;;5068377;28;20279;-55
2024/04/05 10:49:07;;;;;;;1.45;0.30;;;;;;;;;;5069394;28;20226;-54
2024/04/05 10:51:33;;;;;;;1.30;0.40;;;;;;;;;;5069150;28;20222;-55
2024/04/05 10:54:06;;;;;;;0.70;0.30;;;;;;;;;;5069230;28;20202;-55
2024/04/05 10:56:36;;;;;;;0.35;0.30;;;;;;;;;;5069151;28;20774;-54
2024/04/05 10:59:04;;;;;;;1.55;0.40;;;;;;;;;;5069100;28;20287;-54
2024/04/05 11:01:30;;;;;;;0.40;0.30;;;;;;;;;;5069264;28;20203;-52
2024/04/05 11:03:56;;;;;;;0.40;0.40;;;;;;;;;;5069272;28;20698;-54
2024/04/05 11:06:23;;;;;;;0.30;0.30;;;;;;;;;;5069132;28;20198;-52
2024/04/05 11:08:51;;;;;;;2.90;0.30;;;;;;;;;;5068873;28;20206;-50
2024/04/05 11:11:19;;;;;;;0.63;0.35;;;;;;;;;;5034074;28;20199;-53
2024/04/05 11:13:45;;;;;;;1.05;0.30;;;;;;;;;;5068924;28;20306;-51
2024/04/05 11:16:14;;;;;;;0.40;0.40;;;;;;;;;;5069203;28;20218;-52
2024/04/05 11:18:42;;;;;;;0.40;0.40;;;;;;;;;;5068887;28;20238;-54
2024/04/05 11:21:13;;;;;;;0.30;0.20;;;;;;;;;;5069138;28;20274;-51
2024/04/05 11:23:49;;;;;;;0.73;0.40;;;;;;;;;;5068717;28;20209;-50
2024/04/05 11:26:19;;;;;;;0.40;0.30;;;;;;;;;;5068583;28;21012;-53
2024/04/05 11:28:45;;;;;;;0.35;0.35;;;;;;;;;;5068616;28;20801;-54
2024/04/05 11:31:11;;;;;;;0.35;0.32;;;;;;;;;;5068909;28;20235;-54
2024/04/05 11:33:38;;;;;;;0.50;0.32;;;;;;;;;;5068652;28;20689;-54
2024/04/05 11:36:05;;;;;;;0.40;0.38;;;;;;;;;;5068635;28;20226;-54
2024/04/05 11:38:32;;;;;;;0.93;0.30;;;;;;;;;;5068450;28;20234;-55
2024/04/05 11:40:59;;;;;;;0.25;0.20;;;;;;;;;;5067993;28;20207;-54
2024/04/05 11:43:26;;;;;;;0.95;0.43;;;;;;;;;;5068448;28;20203;-52
2024/04/05 11:45:52;;;;;;;0.35;0.30;;;;;;;;;;5068540;28;20206;-54
2024/04/05 11:48:19;;;;;;;0.35;0.30;;;;;;;;;;5068179;28;20199;-53
2024/04/05 11:50:44;;;;;;;0.40;0.32;;;;;;;;;;5068329;28;20229;-54
2024/04/05 11:53:11;;;;;;;0.43;0.40;;;;;;;;;;5067942;28;20262;-54
2024/04/05 11:55:37;;;;;;;0.40;0.40;;;;;;;;;;5068012;28;20294;-54
2024/04/05 11:58:05;;;;;;;0.30;0.30;;;;;;;;;;5067619;28;20305;-55
2024/04/05 12:00:31;;;;;;;0.45;0.40;;;;;;;;;;5068180;28;20292;-52
2024/04/05 12:02:57;;;;;;;0.30;0.30;;;;;;;;;;5067821;28;20234;-54
2024/04/05 12:05:23;;;;;;;1.13;0.40;;;;;;;;;;5068012;28;20206;-54
2024/04/05 12:07:50;;;;;;;0.30;0.30;;;;;;;;;;5067568;28;20667;-52
2024/04/05 12:10:16;;;;;;;0.30;0.30;;;;;;;;;;5067790;28;20199;-51
2024/04/05 12:12:43;;;;;;;0.15;0.13;;;;;;;;;;5067842;28;20214;-52
2024/04/05 12:15:10;;;;;;;0.63;0.40;;;;;;;;;;5067790;28;20209;-55
2024/04/05 12:17:37;;;;;;;0.22;0.20;;;;;;;;;;5067517;28;20663;-50
2024/04/05 12:20:04;;;;;;;0.30;0.30;;;;;;;;;;5067509;28;20202;-54
2024/04/05 12:22:31;;;;;;;0.32;0.30;;;;;;;;;;5067702;28;20199;-55
2024/04/05 12:24:56;;;;;;;0.35;0.35;;;;;;;;;;5067383;28;20209;-51
2024/04/05 12:27:23;;;;;;;0.40;0.30;;;;;;;;;;5067474;28;20227;-52
2024/04/05 12:29:49;;;;;;;0.43;0.32;;;;;;;;;;5067263;28;20194;-54
2024/04/05 12:32:17;;;;;;;0.35;0.35;;;;;;;;;;5067543;28;20701;-55
2024/04/05 12:34:42;;;;;;;0.40;0.40;;;;;;;;;;5067650;28;20683;-55
2024/04/05 12:37:09;;;;;;;0.38;0.38;;;;;;;;;;5067539;28;20254;-55
2024/04/05 12:39:35;;;;;;;0.43;0.30;;;;;;;;;;5067574;28;20207;-55
2024/04/05 12:42:02;;;;;;;0.95;0.40;;;;;;;;;;5067133;28;20253;-54
2024/04/05 12:44:28;;;;;;;0.50;0.38;;;;;;;;;;5067301;28;20202;-54
2024/04/05 12:46:56;;;;;;;0.50;0.40;;;;;;;;;;5066728;28;20238;-54
2024/04/05 12:49:23;;;;;;;0.55;0.40;;;;;;;;;;5067102;28;20199;-56
2024/04/05 12:51:50;;;;;;;0.68;0.50;;;;;;;;;;5066996;28;20207;-53
2024/04/05 12:54:16;;;;;;;0.75;0.40;;;;;;;;;;5047972;28;20849;-54
2024/04/05 12:56:42;;;;;;;0.65;0.50;;;;;;;;;;5066936;28;20206;-52
2024/04/05 12:59:08;;;;;;;1.58;0.52;;;;;;;;;;5067147;28;20610;-51
2024/04/05 13:01:34;;;;;;;0.20;0.20;;;;;;;;;;5066609;28;20199;-55
2024/04/05 13:04:00;;;;;;;1.48;0.50;;;;;;;;;;5031175;28;20206;-53
2024/04/05 13:06:28;;;;;;;0.38;0.32;;;;;;;;;;5066950;28;20199;-55
2024/04/05 13:08:55;;;;;;;0.40;0.40;;;;;;;;;;5065866;28;20248;-54
2024/04/05 13:11:21;;;;;;;0.80;0.40;;;;;;;;;;5066658;28;20675;-55
2024/04/05 13:13:47;;;;;;;0.30;0.30;;;;;;;;;;5066964;28;20257;-53
2024/04/05 13:16:14;;;;;;;0.63;0.47;;;;;;;;;;5067050;28;20594;-55
2024/04/05 13:18:40;;;;;;;0.82;0.40;;;;;;;;;;5066706;28;20231;-56
2024/04/05 13:21:07;;;;;;;0.45;0.20;;;;;;;;;;5065619;28;20199;-55
2024/04/05 13:23:34;;;;;;;0.70;0.40;;;;;;;;;;5066580;28;20252;-55
2024/04/05 13:26:01;;;;;;;0.30;0.30;;;;;;;;;;5031042;28;20222;-53
2024/04/05 13:28:27;;;;;;;0.52;0.40;;;;;;;;;;5031155;28;20226;-52
2024/04/05 13:31:00;;;;;;;1.23;0.50;;;;;;;;;;5047504;28;20667;-54
2024/04/05 13:33:26;;;;;;;1.10;0.30;;;;;;;;;;5066578;28;20678;-53
2024/04/05 13:35:55;;;;;;;0.75;0.50;;;;;;;;;;5066638;28;20211;-55
2024/04/05 13:38:20;;;;;;;0.40;0.40;;;;;;;;;;5047342;28;20305;-53
2024/04/05 13:40:49;;;;;;;0.75;0.45;;;;;;;;;;5066279;28;20794;-54
2024/04/05 13:43:14;;;;;;;0.40;0.40;;;;;;;;;;5066630;28;20908;-52
2024/04/05 13:45:41;;;;;;;0.57;0.40;;;;;;;;;;5066511;28;20214;-56
2024/04/05 13:48:07;;;;;;;0.65;0.40;;;;;;;;;;5066321;28;20203;-56
2024/04/05 13:50:33;;;;;;;0.70;0.38;;;;;;;;;;5066139;28;20737;-56
2024/04/05 13:52:59;;;;;;;0.63;0.35;;;;;;;;;;5066073;28;20203;-56
2024/04/05 13:55:26;;;;;;;0.90;0.30;;;;;;;;;;5047242;28;20205;-56
2024/04/05 13:57:54;;;;;;;0.45;0.45;;;;;;;;;;5066063;28;21152;-55
2024/04/05 14:00:21;;;;;;;0.47;0.47;;;;;;;;;;5066276;28;20202;-53
2024/04/05 14:02:46;;;;;;;0.30;0.30;;;;;;;;;;5065850;28;20199;-54
2024/04/05 14:05:13;;;;;;;0.70;0.50;;;;;;;;;;5066224;28;20302;-54
2024/04/05 14:07:39;;;;;;;0.40;0.40;;;;;;;;;;5066275;28;20199;-55
2024/04/05 14:10:06;;;;;;;0.45;0.45;;;;;;;;;;5066044;28;20224;-53
2024/04/05 14:12:33;;;;;;;0.88;0.57;;;;;;;;;;5065974;28;20187;-56
2024/04/05 14:15:01;;;;;;;1.67;0.50;;;;;;;;;;5066203;28;20257;-53
2024/04/05 14:17:27;;;;;;;0.93;0.90;;;;;;;;;;5065572;28;20227;-56
2024/04/05 14:19:54;;;;;;;0.50;0.35;;;;;;;;;;5067572;28;20238;-53
2024/04/05 14:22:20;;;;;;;0.40;0.40;;;;;;;;;;5070084;28;20211;-54
2024/04/05 14:24:46;;;;;;;0.50;0.43;;;;;;;;;;5069843;28;20215;-50
2024/04/05 14:27:12;;;;;;;0.30;0.30;;;;;;;;;;5069962;28;20250;-54
2024/04/05 14:29:40;;;;;;;0.25;0.20;;;;;;;;;;5069909;28;20955;-55
2024/04/05 14:32:07;;;;;;;0.50;0.38;;;;;;;;;;5069768;28;20242;-54
2024/04/05 14:34:34;;;;;;;0.30;0.30;;;;;;;;;;5069881;28;20198;-55
2024/04/05 14:36:59;;;;;;;0.82;0.40;;;;;;;;;;5069746;28;20209;-53
2024/04/05 14:39:32;;;;;;;1.20;0.40;;;;;;;;;;5069438;28;20199;-55